sensor_id;sensor_type;location;lat;lon;timestamp;P1;durP1;ratioP1;P2;durP2;ratioP2
20014;SDS011;61787;42.022;23.078;2023-11-22T00:00:52;5.17;;;4.07;;
20014;SDS011;61787;42.022;23.078;2023-11-22T00:01:53;8.47;;;3.90;;
20014;SDS011;61787;42.022;23.078;2023-11-22T00:02:55;4.73;;;4.00;;
20014;SDS011;61787;42.022;23.078;2023-11-22T00:03:57;4.63;;;3.80;;
20014;SDS011;61787;42.022;23.078;2023-11-22T00:04:59;6.50;;;4.33;;
20014;SDS011;61787;42.022;23.078;2023-11-22T00:06:01;5.17;;;4.10;;
20014;SDS011;61787;42.022;23.078;2023-11-22T00:07:03;6.87;;;4.40;;
20014;SDS011;61787;42.022;23.078;2023-11-22T00:08:05;6.67;;;4.10;;
20014;SDS011;61787;42.022;23.078;2023-11-22T00:09:08;4.37;;;3.90;;
20014;SDS011;61787;42.022;23.078;2023-11-22T00:10:09;6.13;;;4.20;;
20014;SDS011;61787;42.022;23.078;2023-11-22T00:11:11;6.40;;;4.20;;
20014;SDS011;61787;42.022;23.078;2023-11-22T00:12:14;5.63;;;3.87;;
20014;SDS011;61787;42.022;23.078;2023-11-22T00:13:19;5.50;;;3.60;;
20014;SDS011;61787;42.022;23.078;2023-11-22T00:14:20;4.97;;;3.77;;
20014;SDS011;61787;42.022;23.078;2023-11-22T00:15:23;7.53;;;4.13;;
20014;SDS011;61787;42.022;23.078;2023-11-22T00:16:24;6.13;;;4.53;;
20014;SDS011;61787;42.022;23.078;2023-11-22T00:17:26;5.90;;;4.50;;
20014;SDS011;61787;42.022;23.078;2023-11-22T00:18:27;5.13;;;4.63;;
20014;SDS011;61787;42.022;23.078;2023-11-22T00:19:29;5.33;;;4.50;;
20014;SDS011;61787;42.022;23.078;2023-11-22T00:20:31;7.93;;;4.70;;
20014;SDS011;61787;42.022;23.078;2023-11-22T00:21:35;5.63;;;4.37;;
20014;SDS011;61787;42.022;23.078;2023-11-22T00:22:37;6.67;;;4.17;;
20014;SDS011;61787;42.022;23.078;2023-11-22T00:23:38;8.30;;;4.53;;
20014;SDS011;61787;42.022;23.078;2023-11-22T00:24:40;7.97;;;4.50;;
20014;SDS011;61787;42.022;23.078;2023-11-22T00:25:42;7.20;;;4.70;;
20014;SDS011;61787;42.022;23.078;2023-11-22T00:26:44;5.70;;;3.93;;
20014;SDS011;61787;42.022;23.078;2023-11-22T00:27:46;5.67;;;4.40;;
20014;SDS011;61787;42.022;23.078;2023-11-22T00:28:48;9.77;;;5.00;;
20014;SDS011;61787;42.022;23.078;2023-11-22T00:29:50;6.60;;;4.07;;
20014;SDS011;61787;42.022;23.078;2023-11-22T00:30:53;7.33;;;4.60;;
20014;SDS011;61787;42.022;23.078;2023-11-22T00:31:55;5.70;;;4.50;;
20014;SDS011;61787;42.022;23.078;2023-11-22T00:32:57;7.20;;;4.77;;
20014;SDS011;61787;42.022;23.078;2023-11-22T00:33:59;5.67;;;4.27;;
20014;SDS011;61787;42.022;23.078;2023-11-22T00:35:00;7.47;;;3.90;;
20014;SDS011;61787;42.022;23.078;2023-11-22T00:36:02;5.80;;;4.10;;
20014;SDS011;61787;42.022;23.078;2023-11-22T00:37:05;6.00;;;4.53;;
20014;SDS011;61787;42.022;23.078;2023-11-22T00:38:07;9.03;;;4.40;;
20014;SDS011;61787;42.022;23.078;2023-11-22T00:39:09;5.90;;;4.40;;
20014;SDS011;61787;42.022;23.078;2023-11-22T00:40:14;4.90;;;4.03;;
20014;SDS011;61787;42.022;23.078;2023-11-22T00:41:16;6.37;;;4.37;;
20014;SDS011;61787;42.022;23.078;2023-11-22T00:42:17;5.57;;;4.03;;
20014;SDS011;61787;42.022;23.078;2023-11-22T00:43:21;5.80;;;3.80;;
20014;SDS011;61787;42.022;23.078;2023-11-22T00:44:23;7.23;;;3.93;;
20014;SDS011;61787;42.022;23.078;2023-11-22T00:45:25;5.90;;;4.03;;
20014;SDS011;61787;42.022;23.078;2023-11-22T00:46:26;5.50;;;3.90;;
20014;SDS011;61787;42.022;23.078;2023-11-22T00:47:28;5.57;;;4.00;;
20014;SDS011;61787;42.022;23.078;2023-11-22T00:48:30;6.67;;;4.23;;
20014;SDS011;61787;42.022;23.078;2023-11-22T00:49:32;4.67;;;3.70;;
20014;SDS011;61787;42.022;23.078;2023-11-22T00:50:33;5.60;;;3.83;;
20014;SDS011;61787;42.022;23.078;2023-11-22T00:51:36;4.40;;;3.80;;
20014;SDS011;61787;42.022;23.078;2023-11-22T00:52:37;4.70;;;3.60;;
20014;SDS011;61787;42.022;23.078;2023-11-22T00:53:40;4.83;;;3.60;;
20014;SDS011;61787;42.022;23.078;2023-11-22T00:54:42;5.43;;;3.63;;
20014;SDS011;61787;42.022;23.078;2023-11-22T00:55:43;4.37;;;3.57;;
20014;SDS011;61787;42.022;23.078;2023-11-22T00:56:45;4.27;;;3.60;;
20014;SDS011;61787;42.022;23.078;2023-11-22T00:57:47;4.70;;;3.57;;
20014;SDS011;61787;42.022;23.078;2023-11-22T00:58:49;6.07;;;3.90;;
20014;SDS011;61787;42.022;23.078;2023-11-22T00:59:51;7.90;;;4.10;;
20014;SDS011;61787;42.022;23.078;2023-11-22T01:00:55;8.80;;;4.20;;
20014;SDS011;61787;42.022;23.078;2023-11-22T01:01:56;5.70;;;3.70;;
20014;SDS011;61787;42.022;23.078;2023-11-22T01:03:00;6.43;;;4.27;;
20014;SDS011;61787;42.022;23.078;2023-11-22T01:04:02;8.20;;;4.20;;
20014;SDS011;61787;42.022;23.078;2023-11-22T01:05:05;5.43;;;4.17;;
20014;SDS011;61787;42.022;23.078;2023-11-22T01:06:11;5.83;;;4.07;;
20014;SDS011;61787;42.022;23.078;2023-11-22T01:07:12;7.47;;;4.23;;
20014;SDS011;61787;42.022;23.078;2023-11-22T01:08:14;6.33;;;4.13;;
20014;SDS011;61787;42.022;23.078;2023-11-22T01:09:16;7.37;;;4.60;;
20014;SDS011;61787;42.022;23.078;2023-11-22T01:10:18;7.17;;;4.13;;
20014;SDS011;61787;42.022;23.078;2023-11-22T01:11:19;7.63;;;4.23;;
20014;SDS011;61787;42.022;23.078;2023-11-22T01:12:21;4.90;;;3.60;;
20014;SDS011;61787;42.022;23.078;2023-11-22T01:13:23;6.03;;;3.73;;
20014;SDS011;61787;42.022;23.078;2023-11-22T01:14:25;4.33;;;3.80;;
20014;SDS011;61787;42.022;23.078;2023-11-22T01:15:30;6.17;;;3.90;;
20014;SDS011;61787;42.022;23.078;2023-11-22T01:16:32;5.20;;;3.90;;
20014;SDS011;61787;42.022;23.078;2023-11-22T01:17:34;5.63;;;3.70;;
20014;SDS011;61787;42.022;23.078;2023-11-22T01:18:36;3.77;;;3.43;;
20014;SDS011;61787;42.022;23.078;2023-11-22T01:19:40;5.57;;;4.10;;
20014;SDS011;61787;42.022;23.078;2023-11-22T01:20:42;6.53;;;3.50;;
20014;SDS011;61787;42.022;23.078;2023-11-22T01:21:44;5.50;;;3.50;;
20014;SDS011;61787;42.022;23.078;2023-11-22T01:22:45;5.97;;;3.80;;
20014;SDS011;61787;42.022;23.078;2023-11-22T01:23:47;4.83;;;3.63;;
20014;SDS011;61787;42.022;23.078;2023-11-22T01:24:48;6.63;;;3.80;;
20014;SDS011;61787;42.022;23.078;2023-11-22T01:25:50;5.17;;;3.77;;
20014;SDS011;61787;42.022;23.078;2023-11-22T01:26:52;6.20;;;3.87;;
20014;SDS011;61787;42.022;23.078;2023-11-22T01:27:53;5.90;;;3.93;;
20014;SDS011;61787;42.022;23.078;2023-11-22T01:28:55;5.93;;;3.93;;
20014;SDS011;61787;42.022;23.078;2023-11-22T01:29:57;6.33;;;4.17;;
20014;SDS011;61787;42.022;23.078;2023-11-22T01:30:58;5.37;;;3.97;;
20014;SDS011;61787;42.022;23.078;2023-11-22T01:32:00;6.07;;;3.87;;
20014;SDS011;61787;42.022;23.078;2023-11-22T01:33:02;4.60;;;3.67;;
20014;SDS011;61787;42.022;23.078;2023-11-22T01:34:04;5.93;;;4.00;;
20014;SDS011;61787;42.022;23.078;2023-11-22T01:35:09;6.13;;;4.27;;
20014;SDS011;61787;42.022;23.078;2023-11-22T01:36:10;5.93;;;3.60;;
20014;SDS011;61787;42.022;23.078;2023-11-22T01:37:12;4.77;;;3.77;;
20014;SDS011;61787;42.022;23.078;2023-11-22T01:38:14;5.30;;;3.90;;
20014;SDS011;61787;42.022;23.078;2023-11-22T01:39:15;6.17;;;3.83;;
20014;SDS011;61787;42.022;23.078;2023-11-22T01:40:17;5.33;;;3.70;;
20014;SDS011;61787;42.022;23.078;2023-11-22T01:41:20;5.70;;;4.27;;
20014;SDS011;61787;42.022;23.078;2023-11-22T01:42:22;6.70;;;4.23;;
20014;SDS011;61787;42.022;23.078;2023-11-22T01:43:26;6.53;;;3.80;;
20014;SDS011;61787;42.022;23.078;2023-11-22T01:44:28;4.67;;;3.80;;
20014;SDS011;61787;42.022;23.078;2023-11-22T01:45:30;4.83;;;3.60;;
20014;SDS011;61787;42.022;23.078;2023-11-22T01:46:31;4.33;;;3.90;;
20014;SDS011;61787;42.022;23.078;2023-11-22T01:47:35;5.97;;;4.17;;
20014;SDS011;61787;42.022;23.078;2023-11-22T01:48:38;6.03;;;3.90;;
20014;SDS011;61787;42.022;23.078;2023-11-22T01:49:39;6.47;;;3.60;;
20014;SDS011;61787;42.022;23.078;2023-11-22T01:50:42;5.20;;;3.73;;
20014;SDS011;61787;42.022;23.078;2023-11-22T01:51:44;5.37;;;4.03;;
20014;SDS011;61787;42.022;23.078;2023-11-22T01:52:46;7.23;;;3.87;;
20014;SDS011;61787;42.022;23.078;2023-11-22T01:53:51;5.73;;;3.53;;
20014;SDS011;61787;42.022;23.078;2023-11-22T01:54:55;4.93;;;3.73;;
20014;SDS011;61787;42.022;23.078;2023-11-22T01:55:57;6.17;;;3.90;;
20014;SDS011;61787;42.022;23.078;2023-11-22T01:56:59;4.10;;;3.70;;
20014;SDS011;61787;42.022;23.078;2023-11-22T01:58:03;5.70;;;4.23;;
20014;SDS011;61787;42.022;23.078;2023-11-22T01:59:05;3.67;;;3.37;;
20014;SDS011;61787;42.022;23.078;2023-11-22T02:00:07;5.70;;;4.10;;
20014;SDS011;61787;42.022;23.078;2023-11-22T02:01:09;4.87;;;3.60;;
20014;SDS011;61787;42.022;23.078;2023-11-22T02:02:13;4.20;;;3.50;;
20014;SDS011;61787;42.022;23.078;2023-11-22T02:03:15;5.30;;;3.60;;
20014;SDS011;61787;42.022;23.078;2023-11-22T02:04:18;5.30;;;3.70;;
20014;SDS011;61787;42.022;23.078;2023-11-22T02:05:20;7.57;;;3.60;;
20014;SDS011;61787;42.022;23.078;2023-11-22T02:06:21;4.63;;;3.77;;
20014;SDS011;61787;42.022;23.078;2023-11-22T02:07:23;5.40;;;3.97;;
20014;SDS011;61787;42.022;23.078;2023-11-22T02:08:28;7.87;;;4.30;;
20014;SDS011;61787;42.022;23.078;2023-11-22T02:09:30;6.67;;;3.53;;
20014;SDS011;61787;42.022;23.078;2023-11-22T02:10:31;8.13;;;3.80;;
20014;SDS011;61787;42.022;23.078;2023-11-22T02:11:33;6.70;;;3.93;;
20014;SDS011;61787;42.022;23.078;2023-11-22T02:12:35;5.77;;;3.43;;
20014;SDS011;61787;42.022;23.078;2023-11-22T02:13:37;5.90;;;3.97;;
20014;SDS011;61787;42.022;23.078;2023-11-22T02:14:38;6.40;;;3.60;;
20014;SDS011;61787;42.022;23.078;2023-11-22T02:15:40;4.87;;;3.70;;
20014;SDS011;61787;42.022;23.078;2023-11-22T02:16:41;5.60;;;3.57;;
20014;SDS011;61787;42.022;23.078;2023-11-22T02:17:43;6.67;;;3.67;;
20014;SDS011;61787;42.022;23.078;2023-11-22T02:18:48;5.63;;;3.67;;
20014;SDS011;61787;42.022;23.078;2023-11-22T02:19:50;4.03;;;3.30;;
20014;SDS011;61787;42.022;23.078;2023-11-22T02:20:52;5.93;;;3.27;;
20014;SDS011;61787;42.022;23.078;2023-11-22T02:21:54;3.90;;;2.73;;
20014;SDS011;61787;42.022;23.078;2023-11-22T02:22:55;4.00;;;3.20;;
20014;SDS011;61787;42.022;23.078;2023-11-22T02:23:58;3.80;;;3.30;;
20014;SDS011;61787;42.022;23.078;2023-11-22T02:25:00;3.37;;;2.97;;
20014;SDS011;61787;42.022;23.078;2023-11-22T02:26:02;4.63;;;3.27;;
20014;SDS011;61787;42.022;23.078;2023-11-22T02:27:03;7.73;;;3.63;;
20014;SDS011;61787;42.022;23.078;2023-11-22T02:28:05;4.13;;;3.40;;
20014;SDS011;61787;42.022;23.078;2023-11-22T02:29:10;5.33;;;3.33;;
20014;SDS011;61787;42.022;23.078;2023-11-22T02:30:11;4.73;;;3.30;;
20014;SDS011;61787;42.022;23.078;2023-11-22T02:31:13;4.73;;;3.57;;
20014;SDS011;61787;42.022;23.078;2023-11-22T02:32:15;5.90;;;3.70;;
20014;SDS011;61787;42.022;23.078;2023-11-22T02:33:16;5.20;;;3.33;;
20014;SDS011;61787;42.022;23.078;2023-11-22T02:34:18;3.70;;;3.10;;
20014;SDS011;61787;42.022;23.078;2023-11-22T02:35:20;4.53;;;3.30;;
20014;SDS011;61787;42.022;23.078;2023-11-22T02:36:22;5.30;;;3.53;;
20014;SDS011;61787;42.022;23.078;2023-11-22T02:37:26;5.10;;;3.57;;
20014;SDS011;61787;42.022;23.078;2023-11-22T02:38:28;5.73;;;2.97;;
20014;SDS011;61787;42.022;23.078;2023-11-22T02:39:50;4.40;;;3.10;;
20014;SDS011;61787;42.022;23.078;2023-11-22T02:41:01;3.97;;;3.17;;
20014;SDS011;61787;42.022;23.078;2023-11-22T02:42:03;5.50;;;3.00;;
20014;SDS011;61787;42.022;23.078;2023-11-22T02:43:05;4.00;;;3.50;;
20014;SDS011;61787;42.022;23.078;2023-11-22T02:44:10;5.20;;;3.27;;
20014;SDS011;61787;42.022;23.078;2023-11-22T02:45:12;4.77;;;3.43;;
20014;SDS011;61787;42.022;23.078;2023-11-22T02:46:15;4.23;;;3.23;;
20014;SDS011;61787;42.022;23.078;2023-11-22T02:47:16;3.43;;;2.80;;
20014;SDS011;61787;42.022;23.078;2023-11-22T02:48:18;5.73;;;3.23;;
20014;SDS011;61787;42.022;23.078;2023-11-22T02:49:20;6.77;;;3.73;;
20014;SDS011;61787;42.022;23.078;2023-11-22T02:50:21;5.03;;;3.60;;
20014;SDS011;61787;42.022;23.078;2023-11-22T02:51:23;8.30;;;4.07;;
20014;SDS011;61787;42.022;23.078;2023-11-22T02:52:25;5.80;;;3.93;;
20014;SDS011;61787;42.022;23.078;2023-11-22T02:53:27;4.83;;;3.90;;
20014;SDS011;61787;42.022;23.078;2023-11-22T02:54:31;5.90;;;4.00;;
20014;SDS011;61787;42.022;23.078;2023-11-22T02:55:33;7.40;;;3.97;;
20014;SDS011;61787;42.022;23.078;2023-11-22T02:56:34;6.43;;;3.67;;
20014;SDS011;61787;42.022;23.078;2023-11-22T02:57:39;7.83;;;4.13;;
20014;SDS011;61787;42.022;23.078;2023-11-22T02:58:41;4.90;;;3.70;;
20014;SDS011;61787;42.022;23.078;2023-11-22T02:59:43;6.87;;;4.27;;
20014;SDS011;61787;42.022;23.078;2023-11-22T03:00:48;7.57;;;4.70;;
20014;SDS011;61787;42.022;23.078;2023-11-22T03:02:02;7.67;;;4.30;;
20014;SDS011;61787;42.022;23.078;2023-11-22T03:03:04;6.43;;;4.30;;
20014;SDS011;61787;42.022;23.078;2023-11-22T03:04:11;5.60;;;4.00;;
20014;SDS011;61787;42.022;23.078;2023-11-22T03:05:13;5.30;;;4.30;;
20014;SDS011;61787;42.022;23.078;2023-11-22T03:06:18;5.87;;;4.10;;
20014;SDS011;61787;42.022;23.078;2023-11-22T03:07:19;4.67;;;3.80;;
20014;SDS011;61787;42.022;23.078;2023-11-22T03:08:22;5.47;;;4.00;;
20014;SDS011;61787;42.022;23.078;2023-11-22T03:09:23;5.83;;;3.60;;
20014;SDS011;61787;42.022;23.078;2023-11-22T03:10:25;4.40;;;3.80;;
20014;SDS011;61787;42.022;23.078;2023-11-22T03:11:27;4.47;;;3.77;;
20014;SDS011;61787;42.022;23.078;2023-11-22T03:12:29;5.57;;;3.63;;
20014;SDS011;61787;42.022;23.078;2023-11-22T03:13:30;6.40;;;4.37;;
20014;SDS011;61787;42.022;23.078;2023-11-22T03:14:32;6.67;;;5.40;;
20014;SDS011;61787;42.022;23.078;2023-11-22T03:15:34;8.00;;;5.20;;
20014;SDS011;61787;42.022;23.078;2023-11-22T03:16:38;5.07;;;4.57;;
20014;SDS011;61787;42.022;23.078;2023-11-22T03:17:40;7.60;;;4.13;;
20014;SDS011;61787;42.022;23.078;2023-11-22T03:18:43;6.33;;;4.20;;
20014;SDS011;61787;42.022;23.078;2023-11-22T03:19:44;6.30;;;4.03;;
20014;SDS011;61787;42.022;23.078;2023-11-22T03:20:47;6.77;;;4.30;;
20014;SDS011;61787;42.022;23.078;2023-11-22T03:21:49;7.20;;;4.50;;
20014;SDS011;61787;42.022;23.078;2023-11-22T03:22:51;5.13;;;4.07;;
20014;SDS011;61787;42.022;23.078;2023-11-22T03:23:52;4.97;;;3.63;;
20014;SDS011;61787;42.022;23.078;2023-11-22T03:24:54;6.53;;;3.87;;
20014;SDS011;61787;42.022;23.078;2023-11-22T03:25:56;5.27;;;3.80;;
20014;SDS011;61787;42.022;23.078;2023-11-22T03:26:57;4.33;;;3.57;;
20014;SDS011;61787;42.022;23.078;2023-11-22T03:28:00;5.57;;;4.00;;
20014;SDS011;61787;42.022;23.078;2023-11-22T03:29:02;4.20;;;3.80;;
20014;SDS011;61787;42.022;23.078;2023-11-22T03:30:04;6.90;;;4.10;;
20014;SDS011;61787;42.022;23.078;2023-11-22T03:31:09;4.13;;;3.27;;
20014;SDS011;61787;42.022;23.078;2023-11-22T03:32:11;3.87;;;3.37;;
20014;SDS011;61787;42.022;23.078;2023-11-22T03:33:12;5.77;;;3.63;;
20014;SDS011;61787;42.022;23.078;2023-11-22T03:34:16;5.33;;;3.90;;
20014;SDS011;61787;42.022;23.078;2023-11-22T03:35:17;5.43;;;3.77;;
20014;SDS011;61787;42.022;23.078;2023-11-22T03:36:19;4.70;;;3.63;;
20014;SDS011;61787;42.022;23.078;2023-11-22T03:37:21;5.67;;;3.90;;
20014;SDS011;61787;42.022;23.078;2023-11-22T03:38:23;5.23;;;4.00;;
20014;SDS011;61787;42.022;23.078;2023-11-22T03:39:25;5.03;;;3.60;;
20014;SDS011;61787;42.022;23.078;2023-11-22T03:40:28;4.40;;;3.70;;
20014;SDS011;61787;42.022;23.078;2023-11-22T03:41:29;7.33;;;3.80;;
20014;SDS011;61787;42.022;23.078;2023-11-22T03:42:31;6.60;;;4.00;;
20014;SDS011;61787;42.022;23.078;2023-11-22T03:43:33;5.17;;;3.77;;
20014;SDS011;61787;42.022;23.078;2023-11-22T03:44:34;4.80;;;3.37;;
20014;SDS011;61787;42.022;23.078;2023-11-22T03:45:36;4.87;;;3.10;;
20014;SDS011;61787;42.022;23.078;2023-11-22T03:46:38;5.47;;;2.90;;
20014;SDS011;61787;42.022;23.078;2023-11-22T03:47:40;5.67;;;2.93;;
20014;SDS011;61787;42.022;23.078;2023-11-22T03:48:42;5.00;;;3.27;;
20014;SDS011;61787;42.022;23.078;2023-11-22T03:49:44;4.70;;;3.10;;
20014;SDS011;61787;42.022;23.078;2023-11-22T03:50:46;4.57;;;3.00;;
20014;SDS011;61787;42.022;23.078;2023-11-22T03:51:47;3.77;;;2.80;;
20014;SDS011;61787;42.022;23.078;2023-11-22T03:52:49;5.17;;;3.30;;
20014;SDS011;61787;42.022;23.078;2023-11-22T03:53:51;5.47;;;2.73;;
20014;SDS011;61787;42.022;23.078;2023-11-22T03:54:52;3.00;;;2.70;;
20014;SDS011;61787;42.022;23.078;2023-11-22T03:55:54;4.27;;;2.70;;
20014;SDS011;61787;42.022;23.078;2023-11-22T03:56:56;5.37;;;2.73;;
20014;SDS011;61787;42.022;23.078;2023-11-22T03:57:57;5.30;;;3.00;;
20014;SDS011;61787;42.022;23.078;2023-11-22T03:58:59;3.23;;;2.63;;
20014;SDS011;61787;42.022;23.078;2023-11-22T04:00:00;3.60;;;2.90;;
20014;SDS011;61787;42.022;23.078;2023-11-22T04:01:02;4.30;;;2.60;;
20014;SDS011;61787;42.022;23.078;2023-11-22T04:02:04;5.53;;;3.00;;
20014;SDS011;61787;42.022;23.078;2023-11-22T04:03:06;4.77;;;3.00;;
20014;SDS011;61787;42.022;23.078;2023-11-22T04:04:08;4.83;;;2.93;;
20014;SDS011;61787;42.022;23.078;2023-11-22T04:05:11;4.00;;;3.00;;
20014;SDS011;61787;42.022;23.078;2023-11-22T04:06:16;2.93;;;2.63;;
20014;SDS011;61787;42.022;23.078;2023-11-22T04:07:18;4.77;;;3.03;;
20014;SDS011;61787;42.022;23.078;2023-11-22T04:08:20;4.10;;;2.50;;
20014;SDS011;61787;42.022;23.078;2023-11-22T04:09:22;5.67;;;2.80;;
20014;SDS011;61787;42.022;23.078;2023-11-22T04:10:23;3.83;;;2.90;;
20014;SDS011;61787;42.022;23.078;2023-11-22T04:11:26;5.10;;;2.90;;
20014;SDS011;61787;42.022;23.078;2023-11-22T04:12:29;4.20;;;2.80;;
20014;SDS011;61787;42.022;23.078;2023-11-22T04:13:34;4.70;;;2.97;;
20014;SDS011;61787;42.022;23.078;2023-11-22T04:14:35;5.07;;;3.00;;
20014;SDS011;61787;42.022;23.078;2023-11-22T04:15:38;4.03;;;3.30;;
20014;SDS011;61787;42.022;23.078;2023-11-22T04:16:40;6.00;;;2.93;;
20014;SDS011;61787;42.022;23.078;2023-11-22T04:17:42;5.77;;;3.30;;
20014;SDS011;61787;42.022;23.078;2023-11-22T04:18:44;3.50;;;3.07;;
20014;SDS011;61787;42.022;23.078;2023-11-22T04:19:46;3.53;;;2.70;;
20014;SDS011;61787;42.022;23.078;2023-11-22T04:20:47;5.73;;;3.70;;
20014;SDS011;61787;42.022;23.078;2023-11-22T04:21:49;4.97;;;4.00;;
20014;SDS011;61787;42.022;23.078;2023-11-22T04:22:51;6.63;;;4.30;;
20014;SDS011;61787;42.022;23.078;2023-11-22T04:23:52;4.57;;;3.60;;
20014;SDS011;61787;42.022;23.078;2023-11-22T04:24:54;5.43;;;3.80;;
20014;SDS011;61787;42.022;23.078;2023-11-22T04:25:56;4.87;;;3.30;;
20014;SDS011;61787;42.022;23.078;2023-11-22T04:26:59;4.80;;;3.27;;
20014;SDS011;61787;42.022;23.078;2023-11-22T04:28:01;3.80;;;3.20;;
20014;SDS011;61787;42.022;23.078;2023-11-22T04:29:02;5.90;;;3.33;;
20014;SDS011;61787;42.022;23.078;2023-11-22T04:30:06;6.70;;;3.20;;
20014;SDS011;61787;42.022;23.078;2023-11-22T04:31:16;6.67;;;3.70;;
20014;SDS011;61787;42.022;23.078;2023-11-22T04:32:17;9.07;;;3.73;;
20014;SDS011;61787;42.022;23.078;2023-11-22T04:33:19;5.73;;;3.47;;
20014;SDS011;61787;42.022;23.078;2023-11-22T04:34:22;5.77;;;3.27;;
20014;SDS011;61787;42.022;23.078;2023-11-22T04:35:23;4.77;;;3.47;;
20014;SDS011;61787;42.022;23.078;2023-11-22T04:36:25;4.80;;;3.23;;
20014;SDS011;61787;42.022;23.078;2023-11-22T04:37:27;4.27;;;3.30;;
20014;SDS011;61787;42.022;23.078;2023-11-22T04:38:33;6.40;;;3.60;;
20014;SDS011;61787;42.022;23.078;2023-11-22T04:39:35;7.27;;;3.80;;
20014;SDS011;61787;42.022;23.078;2023-11-22T04:40:37;5.70;;;3.50;;
20014;SDS011;61787;42.022;23.078;2023-11-22T04:41:39;7.00;;;4.40;;
20014;SDS011;61787;42.022;23.078;2023-11-22T04:42:40;5.30;;;4.50;;
20014;SDS011;61787;42.022;23.078;2023-11-22T04:43:42;7.00;;;4.77;;
20014;SDS011;61787;42.022;23.078;2023-11-22T04:44:46;6.17;;;4.17;;
20014;SDS011;61787;42.022;23.078;2023-11-22T04:45:47;7.67;;;4.80;;
20014;SDS011;61787;42.022;23.078;2023-11-22T04:46:49;4.73;;;3.97;;
20014;SDS011;61787;42.022;23.078;2023-11-22T04:47:51;4.73;;;3.70;;
20014;SDS011;61787;42.022;23.078;2023-11-22T04:48:53;6.20;;;3.80;;
20014;SDS011;61787;42.022;23.078;2023-11-22T04:49:55;7.43;;;3.80;;
20014;SDS011;61787;42.022;23.078;2023-11-22T04:50:56;4.97;;;3.60;;
20014;SDS011;61787;42.022;23.078;2023-11-22T04:51:58;5.77;;;4.30;;
20014;SDS011;61787;42.022;23.078;2023-11-22T04:53:00;5.73;;;4.20;;
20014;SDS011;61787;42.022;23.078;2023-11-22T04:54:03;5.47;;;3.50;;
20014;SDS011;61787;42.022;23.078;2023-11-22T04:55:05;5.60;;;3.90;;
20014;SDS011;61787;42.022;23.078;2023-11-22T04:56:07;7.13;;;4.40;;
20014;SDS011;61787;42.022;23.078;2023-11-22T04:57:08;7.33;;;3.90;;
20014;SDS011;61787;42.022;23.078;2023-11-22T04:58:10;6.37;;;4.27;;
20014;SDS011;61787;42.022;23.078;2023-11-22T04:59:12;7.63;;;4.20;;
20014;SDS011;61787;42.022;23.078;2023-11-22T05:00:14;6.30;;;3.63;;
20014;SDS011;61787;42.022;23.078;2023-11-22T05:01:16;5.17;;;4.00;;
20014;SDS011;61787;42.022;23.078;2023-11-22T05:02:21;7.10;;;4.50;;
20014;SDS011;61787;42.022;23.078;2023-11-22T05:03:23;7.53;;;3.80;;
20014;SDS011;61787;42.022;23.078;2023-11-22T05:04:25;6.13;;;3.97;;
20014;SDS011;61787;42.022;23.078;2023-11-22T05:05:28;5.33;;;4.50;;
20014;SDS011;61787;42.022;23.078;2023-11-22T05:06:30;7.73;;;4.23;;
20014;SDS011;61787;42.022;23.078;2023-11-22T05:07:31;9.63;;;4.43;;
20014;SDS011;61787;42.022;23.078;2023-11-22T05:08:33;5.73;;;4.30;;
20014;SDS011;61787;42.022;23.078;2023-11-22T05:09:35;5.73;;;4.17;;
20014;SDS011;61787;42.022;23.078;2023-11-22T05:10:37;6.07;;;4.60;;
20014;SDS011;61787;42.022;23.078;2023-11-22T05:11:39;7.57;;;4.83;;
20014;SDS011;61787;42.022;23.078;2023-11-22T05:12:42;5.67;;;4.00;;
20014;SDS011;61787;42.022;23.078;2023-11-22T05:13:45;8.63;;;5.53;;
20014;SDS011;61787;42.022;23.078;2023-11-22T05:14:47;7.50;;;5.73;;
20014;SDS011;61787;42.022;23.078;2023-11-22T05:15:49;7.67;;;5.43;;
20014;SDS011;61787;42.022;23.078;2023-11-22T05:16:52;10.97;;;5.47;;
20014;SDS011;61787;42.022;23.078;2023-11-22T05:17:53;6.87;;;5.27;;
20014;SDS011;61787;42.022;23.078;2023-11-22T05:18:55;5.00;;;4.50;;
20014;SDS011;61787;42.022;23.078;2023-11-22T05:19:57;5.03;;;3.87;;
20014;SDS011;61787;42.022;23.078;2023-11-22T05:20:58;5.57;;;4.17;;
20014;SDS011;61787;42.022;23.078;2023-11-22T05:22:00;5.03;;;4.30;;
20014;SDS011;61787;42.022;23.078;2023-11-22T05:23:02;7.07;;;4.20;;
20014;SDS011;61787;42.022;23.078;2023-11-22T05:24:04;5.57;;;4.53;;
20014;SDS011;61787;42.022;23.078;2023-11-22T05:25:05;5.13;;;4.27;;
20014;SDS011;61787;42.022;23.078;2023-11-22T05:26:08;4.63;;;4.03;;
20014;SDS011;61787;42.022;23.078;2023-11-22T05:27:11;5.20;;;4.20;;
20014;SDS011;61787;42.022;23.078;2023-11-22T05:28:13;5.73;;;4.10;;
20014;SDS011;61787;42.022;23.078;2023-11-22T05:29:15;5.37;;;4.03;;
20014;SDS011;61787;42.022;23.078;2023-11-22T05:30:16;4.73;;;3.90;;
20014;SDS011;61787;42.022;23.078;2023-11-22T05:31:19;6.47;;;3.80;;
20014;SDS011;61787;42.022;23.078;2023-11-22T05:32:22;4.70;;;3.80;;
20014;SDS011;61787;42.022;23.078;2023-11-22T05:33:23;6.87;;;4.63;;
20014;SDS011;61787;42.022;23.078;2023-11-22T05:34:25;7.60;;;5.50;;
20014;SDS011;61787;42.022;23.078;2023-11-22T05:35:27;7.67;;;5.13;;
20014;SDS011;61787;42.022;23.078;2023-11-22T05:36:29;9.60;;;5.77;;
20014;SDS011;61787;42.022;23.078;2023-11-22T05:37:31;10.77;;;5.30;;
20014;SDS011;61787;42.022;23.078;2023-11-22T05:38:33;9.37;;;5.10;;
20014;SDS011;61787;42.022;23.078;2023-11-22T05:39:35;7.87;;;5.13;;
20014;SDS011;61787;42.022;23.078;2023-11-22T05:40:37;6.00;;;4.40;;
20014;SDS011;61787;42.022;23.078;2023-11-22T05:41:40;4.27;;;3.83;;
20014;SDS011;61787;42.022;23.078;2023-11-22T05:42:41;5.17;;;3.67;;
20014;SDS011;61787;42.022;23.078;2023-11-22T05:43:43;5.03;;;4.30;;
20014;SDS011;61787;42.022;23.078;2023-11-22T05:44:45;9.07;;;4.10;;
20014;SDS011;61787;42.022;23.078;2023-11-22T05:45:46;5.67;;;4.27;;
20014;SDS011;61787;42.022;23.078;2023-11-22T05:46:51;5.73;;;4.60;;
20014;SDS011;61787;42.022;23.078;2023-11-22T05:47:53;5.73;;;3.07;;
20014;SDS011;61787;42.022;23.078;2023-11-22T05:48:54;3.83;;;3.30;;
20014;SDS011;61787;42.022;23.078;2023-11-22T05:49:56;4.23;;;3.37;;
20014;SDS011;61787;42.022;23.078;2023-11-22T05:50:58;7.60;;;3.90;;
20014;SDS011;61787;42.022;23.078;2023-11-22T05:51:59;5.93;;;4.23;;
20014;SDS011;61787;42.022;23.078;2023-11-22T05:53:01;5.10;;;4.13;;
20014;SDS011;61787;42.022;23.078;2023-11-22T05:54:04;4.20;;;3.80;;
20014;SDS011;61787;42.022;23.078;2023-11-22T05:55:06;5.07;;;4.07;;
20014;SDS011;61787;42.022;23.078;2023-11-22T05:56:09;8.13;;;5.23;;
20014;SDS011;61787;42.022;23.078;2023-11-22T05:57:11;7.20;;;5.20;;
20014;SDS011;61787;42.022;23.078;2023-11-22T05:58:13;6.40;;;4.63;;
20014;SDS011;61787;42.022;23.078;2023-11-22T05:59:17;7.83;;;5.63;;
20014;SDS011;61787;42.022;23.078;2023-11-22T06:00:19;9.00;;;5.10;;
20014;SDS011;61787;42.022;23.078;2023-11-22T06:01:22;7.03;;;4.63;;
20014;SDS011;61787;42.022;23.078;2023-11-22T06:02:23;4.77;;;4.23;;
20014;SDS011;61787;42.022;23.078;2023-11-22T06:03:25;5.53;;;4.30;;
20014;SDS011;61787;42.022;23.078;2023-11-22T06:04:27;8.13;;;5.10;;
20014;SDS011;61787;42.022;23.078;2023-11-22T06:05:29;9.13;;;5.27;;
20014;SDS011;61787;42.022;23.078;2023-11-22T06:06:32;7.57;;;5.60;;
20014;SDS011;61787;42.022;23.078;2023-11-22T06:07:33;7.23;;;5.70;;
20014;SDS011;61787;42.022;23.078;2023-11-22T06:08:35;9.60;;;6.00;;
20014;SDS011;61787;42.022;23.078;2023-11-22T06:09:37;9.20;;;5.60;;